sensor_id;sensor_type;location;lat;lon;timestamp;P1;durP1;ratioP1;P2;durP2;ratioP2
18455;SDS011;9357;49.900;8.208;2023-04-06T00:00:19;12.63;;;9.35;;
18455;SDS011;9357;49.900;8.208;2023-04-06T00:01:52;12.43;;;9.10;;
18455;SDS011;9357;49.900;8.208;2023-04-06T00:03:25;13.50;;;9.65;;
18455;SDS011;9357;49.900;8.208;2023-04-06T00:04:58;12.02;;;9.82;;
18455;SDS011;9357;49.900;8.208;2023-04-06T00:06:30;12.63;;;9.70;;
18455;SDS011;9357;49.900;8.208;2023-04-06T00:08:03;17.95;;;10.85;;
18455;SDS011;9357;49.900;8.208;2023-04-06T00:09:36;16.08;;;10.98;;
18455;SDS011;9357;49.900;8.208;2023-04-06T00:11:09;13.77;;;9.73;;
18455;SDS011;9357;49.900;8.208;2023-04-06T00:12:42;13.35;;;9.95;;
18455;SDS011;9357;49.900;8.208;2023-04-06T00:14:15;12.18;;;9.52;;
18455;SDS011;9357;49.900;8.208;2023-04-06T00:15:48;13.52;;;10.02;;
18455;SDS011;9357;49.900;8.208;2023-04-06T00:17:21;14.48;;;9.48;;
18455;SDS011;9357;49.900;8.208;2023-04-06T00:18:53;14.13;;;9.40;;
18455;SDS011;9357;49.900;8.208;2023-04-06T00:20:26;12.95;;;9.20;;
18455;SDS011;9357;49.900;8.208;2023-04-06T00:21:59;11.10;;;8.77;;
18455;SDS011;9357;49.900;8.208;2023-04-06T00:23:33;13.60;;;9.68;;
18455;SDS011;9357;49.900;8.208;2023-04-06T00:25:06;12.50;;;9.10;;
18455;SDS011;9357;49.900;8.208;2023-04-06T00:26:39;12.30;;;9.13;;
18455;SDS011;9357;49.900;8.208;2023-04-06T00:28:12;12.77;;;9.43;;
18455;SDS011;9357;49.900;8.208;2023-04-06T00:29:45;13.90;;;9.13;;
18455;SDS011;9357;49.900;8.208;2023-04-06T00:31:17;14.77;;;9.10;;
18455;SDS011;9357;49.900;8.208;2023-04-06T00:32:50;14.23;;;9.55;;
18455;SDS011;9357;49.900;8.208;2023-04-06T00:34:23;12.35;;;9.75;;
18455;SDS011;9357;49.900;8.208;2023-04-06T00:35:54;13.43;;;9.40;;
18455;SDS011;9357;49.900;8.208;2023-04-06T00:37:27;11.73;;;9.10;;
18455;SDS011;9357;49.900;8.208;2023-04-06T00:38:59;13.15;;;9.55;;
18455;SDS011;9357;49.900;8.208;2023-04-06T00:40:32;12.40;;;9.18;;
18455;SDS011;9357;49.900;8.208;2023-04-06T00:42:09;13.13;;;8.90;;
18455;SDS011;9357;49.900;8.208;2023-04-06T00:43:44;11.25;;;8.88;;
18455;SDS011;9357;49.900;8.208;2023-04-06T00:45:16;10.57;;;8.60;;
18455;SDS011;9357;49.900;8.208;2023-04-06T00:46:49;13.15;;;8.55;;
18455;SDS011;9357;49.900;8.208;2023-04-06T00:48:20;11.05;;;8.65;;
18455;SDS011;9357;49.900;8.208;2023-04-06T00:49:53;13.30;;;8.95;;
18455;SDS011;9357;49.900;8.208;2023-04-06T00:51:25;10.68;;;7.88;;
18455;SDS011;9357;49.900;8.208;2023-04-06T00:52:59;11.82;;;7.97;;
18455;SDS011;9357;49.900;8.208;2023-04-06T00:54:32;9.95;;;7.78;;
18455;SDS011;9357;49.900;8.208;2023-04-06T00:56:05;12.32;;;7.60;;
18455;SDS011;9357;49.900;8.208;2023-04-06T00:57:38;9.63;;;7.38;;
18455;SDS011;9357;49.900;8.208;2023-04-06T00:59:11;9.75;;;7.15;;
18455;SDS011;9357;49.900;8.208;2023-04-06T01:00:44;11.27;;;7.90;;
18455;SDS011;9357;49.900;8.208;2023-04-06T01:02:17;10.63;;;7.95;;
18455;SDS011;9357;49.900;8.208;2023-04-06T01:03:49;11.38;;;7.95;;
18455;SDS011;9357;49.900;8.208;2023-04-06T01:05:22;16.35;;;8.65;;
18455;SDS011;9357;49.900;8.208;2023-04-06T01:06:55;9.35;;;7.15;;
18455;SDS011;9357;49.900;8.208;2023-04-06T01:08:27;10.27;;;7.85;;
18455;SDS011;9357;49.900;8.208;2023-04-06T01:10:00;11.25;;;7.55;;
18455;SDS011;9357;49.900;8.208;2023-04-06T01:11:31;8.82;;;7.45;;
18455;SDS011;9357;49.900;8.208;2023-04-06T01:13:05;10.05;;;7.38;;
18455;SDS011;9357;49.900;8.208;2023-04-06T01:14:39;8.68;;;6.75;;
18455;SDS011;9357;49.900;8.208;2023-04-06T01:16:12;10.38;;;7.50;;
18455;SDS011;9357;49.900;8.208;2023-04-06T01:17:44;11.77;;;8.70;;
18455;SDS011;9357;49.900;8.208;2023-04-06T01:19:16;13.60;;;8.68;;
18455;SDS011;9357;49.900;8.208;2023-04-06T01:20:48;9.88;;;8.32;;
18455;SDS011;9357;49.900;8.208;2023-04-06T01:22:23;10.15;;;8.00;;
18455;SDS011;9357;49.900;8.208;2023-04-06T01:23:56;12.20;;;9.05;;
18455;SDS011;9357;49.900;8.208;2023-04-06T01:25:28;12.68;;;9.13;;
18455;SDS011;9357;49.900;8.208;2023-04-06T01:27:01;12.23;;;8.98;;
18455;SDS011;9357;49.900;8.208;2023-04-06T01:28:33;11.95;;;8.63;;
18455;SDS011;9357;49.900;8.208;2023-04-06T01:30:08;12.95;;;8.45;;
18455;SDS011;9357;49.900;8.208;2023-04-06T01:31:40;10.23;;;8.93;;
18455;SDS011;9357;49.900;8.208;2023-04-06T01:33:13;13.55;;;8.75;;
18455;SDS011;9357;49.900;8.208;2023-04-06T01:34:46;12.93;;;9.05;;
18455;SDS011;9357;49.900;8.208;2023-04-06T01:36:19;12.65;;;9.13;;
18455;SDS011;9357;49.900;8.208;2023-04-06T01:37:52;11.20;;;8.80;;
18455;SDS011;9357;49.900;8.208;2023-04-06T01:39:25;11.38;;;8.85;;
18455;SDS011;9357;49.900;8.208;2023-04-06T01:40:57;11.40;;;9.48;;
18455;SDS011;9357;49.900;8.208;2023-04-06T01:42:30;14.25;;;9.10;;
18455;SDS011;9357;49.900;8.208;2023-04-06T01:44:02;12.00;;;8.90;;
18455;SDS011;9357;49.900;8.208;2023-04-06T01:45:34;13.80;;;10.20;;
18455;SDS011;9357;49.900;8.208;2023-04-06T01:47:07;14.23;;;10.30;;
18455;SDS011;9357;49.900;8.208;2023-04-06T01:48:39;12.20;;;9.93;;
18455;SDS011;9357;49.900;8.208;2023-04-06T01:50:11;14.13;;;10.15;;
18455;SDS011;9357;49.900;8.208;2023-04-06T01:51:43;13.07;;;9.65;;
18455;SDS011;9357;49.900;8.208;2023-04-06T01:53:17;13.35;;;9.18;;
18455;SDS011;9357;49.900;8.208;2023-04-06T01:54:49;16.25;;;9.65;;
18455;SDS011;9357;49.900;8.208;2023-04-06T01:56:22;12.35;;;9.00;;
18455;SDS011;9357;49.900;8.208;2023-04-06T01:57:54;12.82;;;8.85;;
18455;SDS011;9357;49.900;8.208;2023-04-06T01:59:26;13.13;;;9.15;;
18455;SDS011;9357;49.900;8.208;2023-04-06T02:00:59;13.85;;;9.65;;
18455;SDS011;9357;49.900;8.208;2023-04-06T02:02:31;12.18;;;9.80;;
18455;SDS011;9357;49.900;8.208;2023-04-06T02:04:04;13.15;;;9.13;;
18455;SDS011;9357;49.900;8.208;2023-04-06T02:05:37;15.45;;;10.27;;
18455;SDS011;9357;49.900;8.208;2023-04-06T02:07:09;13.00;;;9.43;;
18455;SDS011;9357;49.900;8.208;2023-04-06T02:08:43;12.63;;;9.38;;
18455;SDS011;9357;49.900;8.208;2023-04-06T02:10:15;11.65;;;9.65;;
18455;SDS011;9357;49.900;8.208;2023-04-06T02:11:48;14.77;;;9.90;;
18455;SDS011;9357;49.900;8.208;2023-04-06T02:13:20;13.60;;;10.05;;
18455;SDS011;9357;49.900;8.208;2023-04-06T02:14:52;15.55;;;9.82;;
18455;SDS011;9357;49.900;8.208;2023-04-06T02:16:24;14.38;;;10.02;;
18455;SDS011;9357;49.900;8.208;2023-04-06T02:17:57;14.30;;;10.55;;
18455;SDS011;9357;49.900;8.208;2023-04-06T02:19:31;14.73;;;10.32;;
18455;SDS011;9357;49.900;8.208;2023-04-06T02:21:04;14.35;;;9.88;;
18455;SDS011;9357;49.900;8.208;2023-04-06T02:22:37;12.65;;;9.50;;
18455;SDS011;9357;49.900;8.208;2023-04-06T02:24:12;13.68;;;10.27;;
18455;SDS011;9357;49.900;8.208;2023-04-06T02:25:44;13.95;;;10.25;;
18455;SDS011;9357;49.900;8.208;2023-04-06T02:27:17;14.73;;;9.77;;
18455;SDS011;9357;49.900;8.208;2023-04-06T02:28:50;15.27;;;10.55;;
18455;SDS011;9357;49.900;8.208;2023-04-06T02:30:22;14.88;;;10.63;;
18455;SDS011;9357;49.900;8.208;2023-04-06T02:31:55;15.27;;;10.35;;
18455;SDS011;9357;49.900;8.208;2023-04-06T02:33:27;16.15;;;10.38;;
18455;SDS011;9357;49.900;8.208;2023-04-06T02:34:59;21.60;;;14.00;;
18455;SDS011;9357;49.900;8.208;2023-04-06T02:36:32;16.52;;;11.18;;
18455;SDS011;9357;49.900;8.208;2023-04-06T02:38:05;15.60;;;10.48;;
18455;SDS011;9357;49.900;8.208;2023-04-06T02:39:39;13.77;;;11.07;;
18455;SDS011;9357;49.900;8.208;2023-04-06T02:41:11;15.00;;;10.40;;
18455;SDS011;9357;49.900;8.208;2023-04-06T02:42:44;14.73;;;10.43;;
18455;SDS011;9357;49.900;8.208;2023-04-06T02:44:17;17.55;;;10.43;;
18455;SDS011;9357;49.900;8.208;2023-04-06T02:45:49;16.13;;;10.00;;
18455;SDS011;9357;49.900;8.208;2023-04-06T02:47:22;17.20;;;10.60;;
18455;SDS011;9357;49.900;8.208;2023-04-06T02:48:54;14.30;;;10.70;;
18455;SDS011;9357;49.900;8.208;2023-04-06T02:50:27;13.35;;;10.35;;
18455;SDS011;9357;49.900;8.208;2023-04-06T02:52:00;14.90;;;10.82;;
18455;SDS011;9357;49.900;8.208;2023-04-06T02:53:31;14.13;;;11.00;;
18455;SDS011;9357;49.900;8.208;2023-04-06T02:55:06;15.27;;;10.75;;
18455;SDS011;9357;49.900;8.208;2023-04-06T02:56:39;15.15;;;10.88;;
18455;SDS011;9357;49.900;8.208;2023-04-06T02:58:12;14.85;;;10.57;;
18455;SDS011;9357;49.900;8.208;2023-04-06T02:59:44;14.88;;;10.63;;
18455;SDS011;9357;49.900;8.208;2023-04-06T03:01:16;13.48;;;10.10;;
18455;SDS011;9357;49.900;8.208;2023-04-06T03:02:49;15.55;;;10.35;;
18455;SDS011;9357;49.900;8.208;2023-04-06T03:04:22;14.35;;;10.68;;
18455;SDS011;9357;49.900;8.208;2023-04-06T03:05:56;17.67;;;10.85;;
18455;SDS011;9357;49.900;8.208;2023-04-06T03:07:29;15.75;;;10.82;;
18455;SDS011;9357;49.900;8.208;2023-04-06T03:09:02;16.67;;;10.68;;
18455;SDS011;9357;49.900;8.208;2023-04-06T03:10:35;16.58;;;12.20;;
18455;SDS011;9357;49.900;8.208;2023-04-06T03:12:08;17.63;;;11.45;;
18455;SDS011;9357;49.900;8.208;2023-04-06T03:13:41;16.55;;;11.10;;
18455;SDS011;9357;49.900;8.208;2023-04-06T03:15:13;15.43;;;11.15;;
18455;SDS011;9357;49.900;8.208;2023-04-06T03:16:45;15.70;;;10.98;;
18455;SDS011;9357;49.900;8.208;2023-04-06T03:18:20;13.82;;;10.55;;
18455;SDS011;9357;49.900;8.208;2023-04-06T03:19:53;16.85;;;11.15;;
18455;SDS011;9357;49.900;8.208;2023-04-06T03:21:25;16.38;;;11.20;;
18455;SDS011;9357;49.900;8.208;2023-04-06T03:22:58;18.83;;;10.98;;
18455;SDS011;9357;49.900;8.208;2023-04-06T03:24:31;15.32;;;11.50;;
18455;SDS011;9357;49.900;8.208;2023-04-06T03:26:05;14.50;;;11.10;;
18455;SDS011;9357;49.900;8.208;2023-04-06T03:27:37;14.55;;;10.43;;
18455;SDS011;9357;49.900;8.208;2023-04-06T03:29:09;18.95;;;10.70;;
18455;SDS011;9357;49.900;8.208;2023-04-06T03:30:42;16.30;;;10.43;;
18455;SDS011;9357;49.900;8.208;2023-04-06T03:32:14;15.80;;;11.48;;
18455;SDS011;9357;49.900;8.208;2023-04-06T03:33:47;15.82;;;11.32;;
18455;SDS011;9357;49.900;8.208;2023-04-06T03:35:19;15.00;;;10.68;;
18455;SDS011;9357;49.900;8.208;2023-04-06T03:36:52;13.13;;;10.40;;
18455;SDS011;9357;49.900;8.208;2023-04-06T03:38:40;14.93;;;10.57;;
18455;SDS011;9357;49.900;8.208;2023-04-06T03:40:12;14.88;;;10.82;;
18455;SDS011;9357;49.900;8.208;2023-04-06T03:41:47;16.13;;;10.85;;
18455;SDS011;9357;49.900;8.208;2023-04-06T03:43:19;20.10;;;11.38;;
18455;SDS011;9357;49.900;8.208;2023-04-06T03:44:52;15.75;;;11.23;;
18455;SDS011;9357;49.900;8.208;2023-04-06T03:46:25;15.65;;;11.07;;
18455;SDS011;9357;49.900;8.208;2023-04-06T03:47:57;15.43;;;11.25;;
18455;SDS011;9357;49.900;8.208;2023-04-06T03:49:30;16.27;;;10.65;;
18455;SDS011;9357;49.900;8.208;2023-04-06T03:51:02;18.35;;;12.00;;
18455;SDS011;9357;49.900;8.208;2023-04-06T03:52:35;17.77;;;11.27;;
18455;SDS011;9357;49.900;8.208;2023-04-06T03:54:08;14.55;;;10.43;;
18455;SDS011;9357;49.900;8.208;2023-04-06T03:55:41;16.27;;;10.98;;
18455;SDS011;9357;49.900;8.208;2023-04-06T03:57:15;16.15;;;11.02;;
18455;SDS011;9357;49.900;8.208;2023-04-06T03:58:47;14.30;;;10.80;;
18455;SDS011;9357;49.900;8.208;2023-04-06T04:00:21;15.90;;;10.35;;
18455;SDS011;9357;49.900;8.208;2023-04-06T04:01:54;15.95;;;10.80;;
18455;SDS011;9357;49.900;8.208;2023-04-06T04:03:27;15.43;;;10.93;;
18455;SDS011;9357;49.900;8.208;2023-04-06T04:04:59;16.95;;;11.00;;
18455;SDS011;9357;49.900;8.208;2023-04-06T04:06:32;16.55;;;10.80;;
18455;SDS011;9357;49.900;8.208;2023-04-06T04:08:07;17.33;;;10.65;;
18455;SDS011;9357;49.900;8.208;2023-04-06T04:09:40;14.45;;;10.70;;
18455;SDS011;9357;49.900;8.208;2023-04-06T04:11:13;15.77;;;10.27;;
18455;SDS011;9357;49.900;8.208;2023-04-06T04:12:47;15.93;;;10.00;;
18455;SDS011;9357;49.900;8.208;2023-04-06T04:14:20;13.13;;;9.65;;
18455;SDS011;9357;49.900;8.208;2023-04-06T04:15:52;12.90;;;9.27;;
18455;SDS011;9357;49.900;8.208;2023-04-06T04:17:25;15.07;;;9.82;;
18455;SDS011;9357;49.900;8.208;2023-04-06T04:18:58;13.63;;;9.48;;
18455;SDS011;9357;49.900;8.208;2023-04-06T04:20:31;13.13;;;9.23;;
18455;SDS011;9357;49.900;8.208;2023-04-06T04:22:03;12.45;;;9.15;;
18455;SDS011;9357;49.900;8.208;2023-04-06T04:23:37;13.77;;;9.63;;
18455;SDS011;9357;49.900;8.208;2023-04-06T04:25:10;12.30;;;9.20;;
18455;SDS011;9357;49.900;8.208;2023-04-06T04:26:42;13.52;;;9.55;;
18455;SDS011;9357;49.900;8.208;2023-04-06T04:28:16;13.95;;;9.75;;
18455;SDS011;9357;49.900;8.208;2023-04-06T04:29:49;15.57;;;11.35;;
18455;SDS011;9357;49.900;8.208;2023-04-06T04:31:23;14.55;;;10.32;;
18455;SDS011;9357;49.900;8.208;2023-04-06T04:32:56;14.15;;;10.40;;
18455;SDS011;9357;49.900;8.208;2023-04-06T04:34:29;14.02;;;10.27;;
18455;SDS011;9357;49.900;8.208;2023-04-06T04:36:02;14.32;;;10.57;;
18455;SDS011;9357;49.900;8.208;2023-04-06T04:37:35;13.68;;;9.75;;
18455;SDS011;9357;49.900;8.208;2023-04-06T04:39:07;15.02;;;10.35;;
18455;SDS011;9357;49.900;8.208;2023-04-06T04:40:40;15.52;;;10.43;;
18455;SDS011;9357;49.900;8.208;2023-04-06T04:42:13;14.73;;;9.98;;
18455;SDS011;9357;49.900;8.208;2023-04-06T04:43:48;15.38;;;10.35;;
18455;SDS011;9357;49.900;8.208;2023-04-06T04:45:20;14.05;;;10.68;;
18455;SDS011;9357;49.900;8.208;2023-04-06T04:46:53;16.95;;;10.27;;
18455;SDS011;9357;49.900;8.208;2023-04-06T04:48:26;13.18;;;9.55;;
18455;SDS011;9357;49.900;8.208;2023-04-06T04:49:59;14.80;;;10.15;;
18455;SDS011;9357;49.900;8.208;2023-04-06T04:51:31;14.85;;;10.48;;
18455;SDS011;9357;49.900;8.208;2023-04-06T04:53:04;15.30;;;10.60;;
18455;SDS011;9357;49.900;8.208;2023-04-06T04:54:37;15.45;;;10.05;;
18455;SDS011;9357;49.900;8.208;2023-04-06T04:56:11;13.35;;;10.30;;
18455;SDS011;9357;49.900;8.208;2023-04-06T04:57:44;15.07;;;9.85;;
18455;SDS011;9357;49.900;8.208;2023-04-06T04:59:18;15.05;;;9.65;;
18455;SDS011;9357;49.900;8.208;2023-04-06T05:00:50;16.05;;;10.40;;
18455;SDS011;9357;49.900;8.208;2023-04-06T05:02:23;13.85;;;9.98;;
18455;SDS011;9357;49.900;8.208;2023-04-06T05:03:56;16.30;;;10.25;;
18455;SDS011;9357;49.900;8.208;2023-04-06T05:05:29;13.75;;;9.50;;
18455;SDS011;9357;49.900;8.208;2023-04-06T05:07:03;13.48;;;9.90;;
18455;SDS011;9357;49.900;8.208;2023-04-06T05:08:36;14.35;;;10.18;;
18455;SDS011;9357;49.900;8.208;2023-04-06T05:10:09;17.80;;;10.23;;
18455;SDS011;9357;49.900;8.208;2023-04-06T05:11:42;13.88;;;10.20;;
18455;SDS011;9357;49.900;8.208;2023-04-06T05:13:14;12.95;;;9.23;;
18455;SDS011;9357;49.900;8.208;2023-04-06T05:14:48;13.07;;;9.55;;
18455;SDS011;9357;49.900;8.208;2023-04-06T05:16:20;14.45;;;9.95;;
18455;SDS011;9357;49.900;8.208;2023-04-06T05:17:53;13.25;;;9.40;;
18455;SDS011;9357;49.900;8.208;2023-04-06T05:19:26;13.25;;;9.85;;
18455;SDS011;9357;49.900;8.208;2023-04-06T05:20:59;15.48;;;10.77;;
18455;SDS011;9357;49.900;8.208;2023-04-06T05:22:31;14.02;;;10.48;;
18455;SDS011;9357;49.900;8.208;2023-04-06T05:24:03;15.07;;;10.27;;
18455;SDS011;9357;49.900;8.208;2023-04-06T05:25:36;14.48;;;10.50;;
18455;SDS011;9357;49.900;8.208;2023-04-06T05:27:09;15.32;;;10.02;;
18455;SDS011;9357;49.900;8.208;2023-04-06T05:28:42;13.55;;;10.55;;
18455;SDS011;9357;49.900;8.208;2023-04-06T05:30:16;15.48;;;10.15;;
18455;SDS011;9357;49.900;8.208;2023-04-06T05:31:50;15.85;;;10.13;;
18455;SDS011;9357;49.900;8.208;2023-04-06T05:33:23;16.55;;;10.93;;
18455;SDS011;9357;49.900;8.208;2023-04-06T05:34:56;15.55;;;10.48;;
18455;SDS011;9357;49.900;8.208;2023-04-06T05:36:29;14.00;;;10.85;;
18455;SDS011;9357;49.900;8.208;2023-04-06T05:38:05;17.90;;;10.60;;
18455;SDS011;9357;49.900;8.208;2023-04-06T05:39:40;15.05;;;10.90;;
18455;SDS011;9357;49.900;8.208;2023-04-06T05:41:12;16.23;;;10.45;;
18455;SDS011;9357;49.900;8.208;2023-04-06T05:42:45;14.43;;;10.68;;
18455;SDS011;9357;49.900;8.208;2023-04-06T05:44:18;13.43;;;10.27;;
18455;SDS011;9357;49.900;8.208;2023-04-06T05:45:52;15.50;;;10.63;;
18455;SDS011;9357;49.900;8.208;2023-04-06T05:47:25;15.63;;;10.13;;
18455;SDS011;9357;49.900;8.208;2023-04-06T05:48:58;16.08;;;10.10;;
18455;SDS011;9357;49.900;8.208;2023-04-06T05:50:30;17.65;;;11.35;;
18455;SDS011;9357;49.900;8.208;2023-04-06T05:52:03;14.05;;;10.60;;
18455;SDS011;9357;49.900;8.208;2023-04-06T05:53:36;13.82;;;10.73;;
18455;SDS011;9357;49.900;8.208;2023-04-06T05:55:09;14.93;;;10.73;;
18455;SDS011;9357;49.900;8.208;2023-04-06T05:56:43;14.88;;;11.18;;
18455;SDS011;9357;49.900;8.208;2023-04-06T05:58:15;16.25;;;10.43;;
18455;SDS011;9357;49.900;8.208;2023-04-06T05:59:49;17.33;;;11.27;;
18455;SDS011;9357;49.900;8.208;2023-04-06T06:01:23;15.77;;;11.00;;
18455;SDS011;9357;49.900;8.208;2023-04-06T06:02:56;16.10;;;11.40;;
18455;SDS011;9357;49.900;8.208;2023-04-06T06:04:29;17.95;;;12.07;;
18455;SDS011;9357;49.900;8.208;2023-04-06T06:06:03;17.17;;;11.32;;
18455;SDS011;9357;49.900;8.208;2023-04-06T06:07:36;16.48;;;11.48;;
18455;SDS011;9357;49.900;8.208;2023-04-06T06:09:09;15.68;;;11.05;;
18455;SDS011;9357;49.900;8.208;2023-04-06T06:10:42;16.42;;;11.45;;
18455;SDS011;9357;49.900;8.208;2023-04-06T06:12:15;14.50;;;11.70;;
18455;SDS011;9357;49.900;8.208;2023-04-06T06:13:47;15.38;;;12.27;;
18455;SDS011;9357;49.900;8.208;2023-04-06T06:15:20;16.55;;;11.98;;
18455;SDS011;9357;49.900;8.208;2023-04-06T06:16:54;15.43;;;11.40;;
18455;SDS011;9357;49.900;8.208;2023-04-06T06:18:27;18.58;;;12.20;;
18455;SDS011;9357;49.900;8.208;2023-04-06T06:20:00;44.05;;;22.65;;
18455;SDS011;9357;49.900;8.208;2023-04-06T06:21:32;46.83;;;24.38;;
18455;SDS011;9357;49.900;8.208;2023-04-06T06:23:05;31.98;;;17.70;;
18455;SDS011;9357;49.900;8.208;2023-04-06T06:24:38;26.85;;;16.15;;
18455;SDS011;9357;49.900;8.208;2023-04-06T06:26:11;19.60;;;12.93;;
18455;SDS011;9357;49.900;8.208;2023-04-06T06:27:44;17.30;;;12.27;;
18455;SDS011;9357;49.900;8.208;2023-04-06T06:29:16;16.33;;;11.40;;
18455;SDS011;9357;49.900;8.208;2023-04-06T06:30:49;18.58;;;11.20;;
18455;SDS011;9357;49.900;8.208;2023-04-06T06:32:23;21.92;;;11.50;;
18455;SDS011;9357;49.900;8.208;2023-04-06T06:33:56;16.60;;;11.63;;
18455;SDS011;9357;49.900;8.208;2023-04-06T06:35:29;17.88;;;11.52;;
18455;SDS011;9357;49.900;8.208;2023-04-06T06:37:02;17.23;;;11.55;;
18455;SDS011;9357;49.900;8.208;2023-04-06T06:38:34;14.93;;;11.57;;
18455;SDS011;9357;49.900;8.208;2023-04-06T06:40:08;14.80;;;12.15;;
18455;SDS011;9357;49.900;8.208;2023-04-06T06:41:44;15.75;;;11.55;;
18455;SDS011;9357;49.900;8.208;2023-04-06T06:43:16;17.25;;;13.15;;
18455;SDS011;9357;49.900;8.208;2023-04-06T06:44:49;17.80;;;11.88;;
18455;SDS011;9357;49.900;8.208;2023-04-06T06:46:23;16.55;;;12.13;;
18455;SDS011;9357;49.900;8.208;2023-04-06T06:47:57;18.20;;;12.55;;
18455;SDS011;9357;49.900;8.208;2023-04-06T06:49:30;19.08;;;12.50;;
18455;SDS011;9357;49.900;8.208;2023-04-06T06:51:03;16.80;;;12.43;;
18455;SDS011;9357;49.900;8.208;2023-04-06T06:52:36;17.05;;;12.57;;
18455;SDS011;9357;49.900;8.208;2023-04-06T06:54:08;19.50;;;12.00;;
18455;SDS011;9357;49.900;8.208;2023-04-06T06:55:42;18.95;;;12.18;;
18455;SDS011;9357;49.900;8.208;2023-04-06T06:57:15;15.55;;;11.88;;
18455;SDS011;9357;49.900;8.208;2023-04-06T06:58:48;17.52;;;12.55;;
18455;SDS011;9357;49.900;8.208;2023-04-06T07:00:21;22.05;;;13.10;;
18455;SDS011;9357;49.900;8.208;2023-04-06T07:01:54;19.67;;;13.45;;
18455;SDS011;9357;49.900;8.208;2023-04-06T07:03:28;22.58;;;13.80;;
18455;SDS011;9357;49.900;8.208;2023-04-06T07:05:02;19.13;;;13.27;;
18455;SDS011;9357;49.900;8.208;2023-04-06T07:06:55;23.35;;;14.43;;
18455;SDS011;9357;49.900;8.208;2023-04-06T07:08:27;23.45;;;13.95;;
18455;SDS011;9357;49.900;8.208;2023-04-06T07:10:00;19.23;;;13.88;;
18455;SDS011;9357;49.900;8.208;2023-04-06T07:11:33;21.40;;;13.95;;
18455;SDS011;9357;49.900;8.208;2023-04-06T07:13:06;21.58;;;15.02;;
18455;SDS011;9357;49.900;8.208;2023-04-06T07:14:39;20.85;;;14.63;;
18455;SDS011;9357;49.900;8.208;2023-04-06T07:16:12;22.92;;;14.80;;
18455;SDS011;9357;49.900;8.208;2023-04-06T07:17:45;27.90;;;16.48;;
18455;SDS011;9357;49.900;8.208;2023-04-06T07:19:19;22.77;;;15.65;;
18455;SDS011;9357;49.900;8.208;2023-04-06T07:20:51;23.50;;;15.85;;
18455;SDS011;9357;49.900;8.208;2023-04-06T07:22:24;23.55;;;17.02;;
18455;SDS011;9357;49.900;8.208;2023-04-06T07:23:57;25.20;;;16.88;;
18455;SDS011;9357;49.900;8.208;2023-04-06T07:25:30;27.42;;;18.23;;
18455;SDS011;9357;49.900;8.208;2023-04-06T07:27:03;23.92;;;16.02;;
18455;SDS011;9357;49.900;8.208;2023-04-06T07:28:36;22.98;;;15.40;;
18455;SDS011;9357;49.900;8.208;2023-04-06T07:30:08;26.25;;;17.33;;
18455;SDS011;9357;49.900;8.208;2023-04-06T07:31:42;22.08;;;15.30;;
18455;SDS011;9357;49.900;8.208;2023-04-06T07:33:14;22.42;;;15.35;;
18455;SDS011;9357;49.900;8.208;2023-04-06T07:34:48;20.58;;;14.82;;
18455;SDS011;9357;49.900;8.208;2023-04-06T07:36:21;19.67;;;13.77;;
18455;SDS011;9357;49.900;8.208;2023-04-06T07:37:54;21.02;;;13.98;;
18455;SDS011;9357;49.900;8.208;2023-04-06T07:39:27;18.65;;;14.43;;
18455;SDS011;9357;49.900;8.208;2023-04-06T07:41:00;21.90;;;14.48;;
18455;SDS011;9357;49.900;8.208;2023-04-06T07:42:35;20.02;;;13.80;;
18455;SDS011;9357;49.900;8.208;2023-04-06T07:44:08;20.13;;;14.30;;
18455;SDS011;9357;49.900;8.208;2023-04-06T07:45:41;20.88;;;13.52;;
18455;SDS011;9357;49.900;8.208;2023-04-06T07:47:13;18.83;;;13.27;;
18455;SDS011;9357;49.900;8.208;2023-04-06T07:48:46;19.15;;;13.43;;
18455;SDS011;9357;49.900;8.208;2023-04-06T07:50:20;16.45;;;12.32;;
18455;SDS011;9357;49.900;8.208;2023-04-06T07:51:53;17.98;;;11.60;;
18455;SDS011;9357;49.900;8.208;2023-04-06T07:53:26;15.77;;;11.68;;
18455;SDS011;9357;49.900;8.208;2023-04-06T07:54:59;15.57;;;10.93;;
18455;SDS011;9357;49.900;8.208;2023-04-06T07:56:31;13.32;;;10.30;;
18455;SDS011;9357;49.900;8.208;2023-04-06T07:58:04;14.32;;;10.27;;
18455;SDS011;9357;49.900;8.208;2023-04-06T07:59:37;13.48;;;9.88;;
18455;SDS011;9357;49.900;8.208;2023-04-06T08:01:10;12.60;;;9.40;;
18455;SDS011;9357;49.900;8.208;2023-04-06T08:02:43;11.77;;;9.20;;
18455;SDS011;9357;49.900;8.208;2023-04-06T08:04:16;12.05;;;9.32;;
18455;SDS011;9357;49.900;8.208;2023-04-06T08:05:50;9.80;;;7.97;;
18455;SDS011;9357;49.900;8.208;2023-04-06T08:07:23;11.80;;;8.48;;
18455;SDS011;9357;49.900;8.208;2023-04-06T08:08:56;9.90;;;8.05;;
18455;SDS011;9357;49.900;8.208;2023-04-06T08:10:28;9.20;;;7.78;;
18455;SDS011;9357;49.900;8.208;2023-04-06T08:12:01;12.85;;;8.48;;
18455;SDS011;9357;49.900;8.208;2023-04-06T08:13:34;10.50;;;8.30;;
18455;SDS011;9357;49.900;8.208;2023-04-06T08:15:07;10.73;;;9.23;;
18455;SDS011;9357;49.900;8.208;2023-04-06T08:16:40;9.85;;;8.60;;
18455;SDS011;9357;49.900;8.208;2023-04-06T08:18:12;11.93;;;8.27;;
18455;SDS011;9357;49.900;8.208;2023-04-06T08:19:45;9.50;;;8.23;;
18455;SDS011;9357;49.900;8.208;2023-04-06T08:21:19;9.30;;;8.40;;
18455;SDS011;9357;49.900;8.208;2023-04-06T08:22:52;10.27;;;8.53;;
18455;SDS011;9357;49.900;8.208;2023-04-06T08:24:25;11.03;;;9.13;;
18455;SDS011;9357;49.900;8.208;2023-04-06T08:25:58;10.03;;;8.60;;
18455;SDS011;9357;49.900;8.208;2023-04-06T08:27:30;12.70;;;8.57;;
18455;SDS011;9357;49.900;8.208;2023-04-06T08:29:03;8.80;;;7.90;;
18455;SDS011;9357;49.900;8.208;2023-04-06T08:30:39;9.87;;;8.53;;
18455;SDS011;9357;49.900;8.208;2023-04-06T08:32:12;10.20;;;9.03;;
18455;SDS011;9357;49.900;8.208;2023-04-06T08:33:44;10.90;;;9.20;;
18455;SDS011;9357;49.900;8.208;2023-04-06T08:35:17;10.67;;;9.13;;
18455;SDS011;9357;49.900;8.208;2023-04-06T08:36:52;10.53;;;9.43;;
18455;SDS011;9357;49.900;8.208;2023-04-06T08:38:24;10.80;;;9.30;;
18455;SDS011;9357;49.900;8.208;2023-04-06T08:39:57;10.17;;;9.07;;
18455;SDS011;9357;49.900;8.208;2023-04-06T08:41:30;9.57;;;8.53;;
18455;SDS011;9357;49.900;8.208;2023-04-06T08:43:03;10.23;;;8.87;;
18455;SDS011;9357;49.900;8.208;2023-04-06T08:44:41;12.67;;;8.83;;
18455;SDS011;9357;49.900;8.208;2023-04-06T08:46:13;10.43;;;8.50;;
18455;SDS011;9357;49.900;8.208;2023-04-06T08:47:47;9.17;;;8.27;;
18455;SDS011;9357;49.900;8.208;2023-04-06T08:49:22;10.97;;;8.40;;
18455;SDS011;9357;49.900;8.208;2023-04-06T08:50:55;11.73;;;8.60;;
18455;SDS011;9357;49.900;8.208;2023-04-06T08:52:29;11.30;;;9.27;;
18455;SDS011;9357;49.900;8.208;2023-04-06T08:54:04;12.13;;;9.00;;
18455;SDS011;9357;49.900;8.208;2023-04-06T08:55:37;10.13;;;8.97;;
18455;SDS011;9357;49.900;8.208;2023-04-06T08:57:11;10.23;;;8.77;;
18455;SDS011;9357;49.900;8.208;2023-04-06T08:58:44;11.73;;;9.27;;
18455;SDS011;9357;49.900;8.208;2023-04-06T09:00:17;11.37;;;8.77;;
18455;SDS011;9357;49.900;8.208;2023-04-06T09:01:50;10.17;;;9.13;;
18455;SDS011;9357;49.900;8.208;2023-04-06T09:03:24;10.70;;;9.50;;
18455;SDS011;9357;49.900;8.208;2023-04-06T09:04:59;11.17;;;9.97;;
18455;SDS011;9357;49.900;8.208;2023-04-06T09:06:33;9.13;;;8.20;;
18455;SDS011;9357;49.900;8.208;2023-04-06T09:08:09;13.30;;;9.13;;
18455;SDS011;9357;49.900;8.208;2023-04-06T09:09:42;12.17;;;9.43;;
18455;SDS011;9357;49.900;8.208;2023-04-06T09:11:18;10.70;;;8.73;;
18455;SDS011;9357;49.900;8.208;2023-04-06T09:12:51;9.83;;;8.60;;
18455;SDS011;9357;49.900;8.208;2023-04-06T09:14:35;9.60;;;8.60;;
18455;SDS011;9357;49.900;8.208;2023-04-06T09:16:08;9.73;;;8.67;;